Time;durP1;ratioP1;P1;durP2;ratioP2;P2;SDS_P1;SDS_P2;PMS_P1;PMS_P2;Temp;Humidity;BMP_temperature;BMP_pressure;BME280_temperature;BME280_humidity;BME280_pressure;Samples;Min_cycle;Max_cycle;Signal;HPM_P1;HPM_P2
2023/01/11 00:01:14;;;;;;;2.15;1.05;;;;;;;10.78;57.89;99262.25;5007239;28;20486;-73
2023/01/11 00:03:43;;;;;;;0.90;0.77;;;;;;;10.76;58.56;99267.41;4997759;28;20057;-73
2023/01/11 00:06:12;;;;;;;2.22;1.00;;;;;;;10.73;59.10;99263.97;5006539;28;20500;-73
2023/01/11 00:08:41;;;;;;;2.05;1.20;;;;;;;10.69;57.89;99274.28;5005726;28;20046;-73
2023/01/11 00:11:15;;;;;;;1.70;1.42;;;;;;;10.69;58.70;99268.25;5006040;28;20045;-73
2023/01/11 00:13:45;;;;;;;1.15;0.90;;;;;;;10.68;59.01;99282.03;5006555;28;20045;-75
2023/01/11 00:16:15;;;;;;;1.77;0.95;;;;;;;10.61;59.74;99300.97;5004485;28;20084;-72
2023/01/11 00:18:44;;;;;;;1.30;0.82;;;;;;;10.55;59.15;99309.53;5005374;28;20061;-72
2023/01/11 00:21:13;;;;;;;3.30;1.30;;;;;;;10.56;59.06;99302.66;5006006;28;20049;-73
2023/01/11 00:23:42;;;;;;;1.92;1.10;;;;;;;10.57;59.26;99319.91;5006950;28;20065;-74
2023/01/11 00:26:13;;;;;;;1.38;0.90;;;;;;;10.57;59.83;99314.75;5011025;28;20134;-74
2023/01/11 00:28:42;;;;;;;1.42;0.90;;;;;;;10.58;58.23;99308.69;5010764;28;20045;-73
2023/01/11 00:31:10;;;;;;;1.48;0.90;;;;;;;10.58;58.55;99312.16;5009543;28;20045;-73
2023/01/11 00:33:41;;;;;;;1.02;0.85;;;;;;;10.58;59.06;99330.28;5008808;28;20057;-72
2023/01/11 00:36:10;;;;;;;2.03;1.00;;;;;;;10.56;57.80;99324.22;5011121;28;20125;-73
2023/01/11 00:38:45;;;;;;;1.00;0.70;;;;;;;10.60;57.52;99317.34;5004460;28;20042;-73
2023/01/11 00:49:34;;;;;;;1.45;0.98;;;;;;;10.59;56.40;99313.03;5010509;28;20318;-79
2023/01/11 00:52:04;;;;;;;1.27;1.10;;;;;;;10.58;56.56;99322.50;5011280;28;20065;-76
2023/01/11 00:54:33;;;;;;;1.63;1.23;;;;;;;10.46;58.08;99336.19;5009615;28;20085;-78
2023/01/11 00:57:01;;;;;;;1.15;0.90;;;;;;;10.27;58.29;99336.91;5008113;28;20049;-78
2023/01/11 00:59:30;;;;;;;3.65;1.67;;;;;;;10.30;58.29;99336.09;5005225;28;20057;-78
2023/01/11 01:01:58;;;;;;;1.55;1.20;;;;;;;10.29;58.20;99334.38;5009411;28;20642;-76
2023/01/11 01:04:27;;;;;;;1.50;1.00;;;;;;;10.30;56.71;99330.91;5010055;28;20049;-77
2023/01/11 01:06:57;;;;;;;1.67;1.27;;;;;;;10.30;58.28;99346.44;5009188;28;20045;-77
2023/01/11 01:09:26;;;;;;;2.45;1.00;;;;;;;10.26;58.13;99355.84;5010147;28;20050;-77
2023/01/11 01:11:54;;;;;;;2.30;1.00;;;;;;;10.16;57.69;99364.38;5010263;28;20050;-77
2023/01/11 01:14:25;;;;;;;1.30;1.00;;;;;;;10.13;58.83;99370.38;5010420;28;20050;-81
2023/01/11 01:16:54;;;;;;;1.30;0.88;;;;;;;10.11;58.14;99369.50;5010255;28;20049;-80
2023/01/11 01:19:23;;;;;;;3.95;1.42;;;;;;;10.12;58.80;99373.81;5009130;28;20105;-83
2023/01/11 01:21:51;;;;;;;2.05;1.15;;;;;;;10.11;58.38;99382.44;5007593;28;20440;-82
2023/01/11 01:24:22;;;;;;;1.42;0.85;;;;;;;10.04;58.27;99368.59;5015648;28;20070;-79
2023/01/11 01:26:50;;;;;;;1.65;0.82;;;;;;;10.09;58.04;99371.22;5008672;28;20045;-79
2023/01/11 01:29:19;;;;;;;3.42;1.23;;;;;;;10.01;58.29;99381.47;5012628;28;20057;-77
2023/01/11 01:31:54;;;;;;;4.57;1.15;;;;;;;9.99;57.94;99375.44;5011875;28;20057;-78
2023/01/11 01:34:23;;;;;;;1.35;0.85;;;;;;;9.98;57.86;99372.81;5008842;28;20052;-78
2023/01/11 01:36:51;;;;;;;1.10;0.80;;;;;;;9.95;57.13;99384.00;5008750;28;20069;-77
2023/01/11 01:39:21;;;;;;;1.25;1.00;;;;;;;9.96;57.41;99390.03;5011883;28;20073;-78
2023/01/11 01:41:50;;;;;;;1.60;1.00;;;;;;;9.95;57.55;99401.22;5006016;28;20054;-78
2023/01/11 01:45:07;;;;;;;1.65;0.80;;;;;;;9.93;57.50;99406.38;5010622;28;20050;-80
2023/01/11 01:47:44;;;;;;;1.20;0.80;;;;;;;9.94;57.74;99420.16;5008078;28;20705;-76
2023/01/11 01:50:18;;;;;;;1.65;0.90;;;;;;;9.92;59.61;99453.75;5009129;28;20511;-77
2023/01/11 01:52:50;;;;;;;1.08;0.93;;;;;;;9.80;58.83;99479.41;5009501;28;20057;-77
2023/01/11 01:55:26;;;;;;;1.33;0.83;;;;;;;9.78;59.00;99470.78;5007355;28;20053;-81
2023/01/11 01:57:56;;;;;;;1.80;0.90;;;;;;;9.77;60.18;99457.00;5007364;28;20287;-78
2023/01/11 02:00:24;;;;;;;1.80;0.93;;;;;;;9.77;60.44;99458.72;5010335;28;20048;-81
2023/01/11 02:02:53;;;;;;;1.65;0.95;;;;;;;9.78;61.49;99460.44;5008634;28;20050;-79
2023/01/11 02:05:22;;;;;;;1.20;0.90;;;;;;;9.78;62.41;99471.66;5009811;28;20054;-78
2023/01/11 02:07:53;;;;;;;1.85;0.90;;;;;;;9.75;62.50;99471.59;5007743;28;20038;-79
2023/01/11 02:10:26;;;;;;;1.23;0.73;;;;;;;9.76;61.63;99477.66;5007047;28;20057;-76
2023/01/11 02:13:00;;;;;;;2.97;0.80;;;;;;;9.77;61.47;99485.41;5007825;28;20053;-83
2023/01/11 02:15:29;;;;;;;1.13;0.77;;;;;;;9.75;61.57;99494.84;5009120;28;20065;-79
2023/01/11 02:17:58;;;;;;;1.98;0.95;;;;;;;9.72;62.72;99512.91;5006462;28;20052;-75
2023/01/11 02:20:52;;;;;;;1.95;0.90;;;;;;;9.69;64.24;99527.47;5007301;28;20070;-73
2023/01/11 02:24:05;;;;;;;1.73;0.88;;;;;;;9.68;61.97;99528.34;5008937;28;20042;-76
2023/01/11 02:27:17;;;;;;;1.02;0.75;;;;;;;9.56;63.81;99554.88;5002853;28;20054;-73
2023/01/11 02:29:57;;;;;;;1.13;1.00;;;;;;;9.56;65.27;99578.97;5007666;28;20070;-70
2023/01/11 02:32:33;;;;;;;1.40;0.98;;;;;;;9.53;65.35;99578.94;5007754;28;20054;-73
2023/01/11 02:35:13;;;;;;;3.95;1.05;;;;;;;9.54;66.76;99584.97;5007731;28;20042;-71
2023/01/11 02:37:50;;;;;;;1.40;1.08;;;;;;;9.52;68.25;99596.97;5006080;28;20054;-72
2023/01/11 02:40:25;;;;;;;2.60;1.55;;;;;;;9.49;70.39;99597.81;5010734;28;20127;-74
2023/01/11 02:45:51;;;;;;;2.00;0.95;;;;;;;9.43;71.88;99626.97;5009149;28;20459;-73
2023/01/11 02:48:28;;;;;;;2.47;1.25;;;;;;;9.44;71.20;99649.38;5006192;28;20082;-74
2023/01/11 02:51:02;;;;;;;2.53;1.30;;;;;;;9.39;72.31;99645.88;5006589;28;20065;-75
2023/01/11 02:53:37;;;;;;;2.05;1.17;;;;;;;9.40;73.36;99639.84;5007206;28;20131;-75
2023/01/11 02:56:11;;;;;;;4.45;1.50;;;;;;;9.43;75.12;99645.03;5006822;28;20930;-74
2023/01/11 02:58:43;;;;;;;4.07;1.25;;;;;;;9.48;77.18;99642.53;5007227;28;20046;-74
2023/01/11 03:01:14;;;;;;;2.95;1.50;;;;;;;9.49;78.60;99644.28;5008042;28;20058;-77
2023/01/11 03:03:43;;;;;;;2.63;1.50;;;;;;;9.52;80.71;99646.03;5010900;28;20050;-77
2023/01/11 03:06:17;;;;;;;4.50;1.88;;;;;;;9.55;80.86;99648.66;5009776;28;20041;-73
2023/01/11 03:09:15;;;;;;;5.00;1.50;;;;;;;9.55;80.71;99644.41;5011081;28;20060;-75
2023/01/11 03:14:52;;;;;;;4.18;1.67;;;;;;;9.52;83.89;99643.47;5007101;28;20676;-72
2023/01/11 03:17:36;;;;;;;4.38;2.10;;;;;;;9.60;86.94;99662.53;5009317;28;20655;-76
2023/01/11 03:20:14;;;;;;;3.13;1.73;;;;;;;9.59;87.30;99663.38;5007455;28;20439;-74
2023/01/11 03:22:54;;;;;;;4.45;2.08;;;;;;;9.58;87.31;99671.97;5010772;28;20072;-75
2023/01/11 03:25:29;;;;;;;4.57;2.15;;;;;;;9.56;87.67;99676.25;5008560;28;20054;-76
2023/01/11 03:28:06;;;;;;;4.63;2.30;;;;;;;9.51;88.18;99673.59;5002713;28;20046;-74
2023/01/11 03:30:41;;;;;;;2.92;2.15;;;;;;;9.51;90.91;99681.34;5001784;28;20085;-76
2023/01/11 03:33:17;;;;;;;4.80;2.03;;;;;;;9.49;90.16;99685.59;5005498;28;20049;-76
2023/01/11 03:35:58;;;;;;;3.72;2.38;;;;;;;9.52;91.14;99689.94;5006465;28;20056;-71
2023/01/11 03:38:33;;;;;;;3.38;1.88;;;;;;;9.51;91.07;99693.38;4998800;28;20104;-72
2023/01/11 03:41:06;;;;;;;6.03;2.60;;;;;;;9.51;91.40;99698.56;5006434;28;20054;-75
2023/01/11 03:43:38;;;;;;;4.57;2.45;;;;;;;9.53;90.37;99702.00;5006082;28;20054;-72
2023/01/11 03:46:11;;;;;;;5.30;2.17;;;;;;;9.55;90.67;99700.31;5005867;28;20496;-75
2023/01/11 03:48:46;;;;;;;4.47;1.88;;;;;;;9.57;89.52;99706.38;5006267;28;20050;-74
2023/01/11 03:51:20;;;;;;;3.33;1.85;;;;;;;9.59;92.48;99700.38;5006690;28;20065;-76
2023/01/11 03:53:52;;;;;;;4.85;2.20;;;;;;;9.61;91.28;99710.75;5006085;28;20061;-74
2023/01/11 03:56:25;;;;;;;5.20;2.10;;;;;;;9.65;89.76;99712.56;5010927;28;20061;-76
2023/01/11 03:58:53;;;;;;;3.30;2.00;;;;;;;9.66;90.97;99709.09;5011058;28;20474;-74
2023/01/11 04:01:22;;;;;;;3.55;1.75;;;;;;;9.67;90.57;99720.31;5009882;28;20061;-75
2023/01/11 04:03:52;;;;;;;2.95;1.90;;;;;;;9.64;90.99;99715.97;5013443;28;20551;-74
2023/01/11 04:06:21;;;;;;;2.65;1.60;;;;;;;9.67;90.76;99718.63;5009169;28;20061;-74
2023/01/11 04:08:50;;;;;;;2.67;1.52;;;;;;;9.70;91.41;99720.38;5007111;28;20049;-74
2023/01/11 04:11:20;;;;;;;2.83;1.27;;;;;;;9.72;90.54;99719.56;5009525;28;20050;-75
2023/01/11 04:13:49;;;;;;;3.05;1.33;;;;;;;9.72;89.45;99729.88;5009782;28;20861;-77
2023/01/11 04:16:18;;;;;;;2.58;1.08;;;;;;;9.73;89.43;99728.16;5009845;28;20049;-80
2023/01/11 04:18:46;;;;;;;2.15;0.90;;;;;;;9.76;89.64;99731.69;5010258;28;20054;-78
2023/01/11 04:21:16;;;;;;;2.15;0.93;;;;;;;9.78;89.76;99735.16;5007992;28;20054;-79
2023/01/11 04:23:45;;;;;;;2.00;1.08;;;;;;;9.78;89.78;99735.16;5009009;28;20081;-80
2023/01/11 04:26:16;;;;;;;2.60;1.27;;;;;;;9.82;91.16;99741.22;4992129;28;20661;-81
2023/01/11 04:28:44;;;;;;;1.38;0.65;;;;;;;9.83;89.78;99735.25;4992477;28;20057;-83
2023/01/11 04:31:13;;;;;;;1.45;0.60;;;;;;;9.82;89.29;99742.09;4994156;28;20500;-83
2023/01/11 04:33:42;;;;;;;1.13;0.50;;;;;;;9.84;89.77;99740.41;4995700;28;20050;-78
2023/01/11 04:36:12;;;;;;;1.10;0.52;;;;;;;9.86;91.39;99743.88;4992293;28;20497;-76
2023/01/11 04:38:42;;;;;;;0.85;0.50;;;;;;;9.86;90.88;99753.34;4994314;28;20669;-76
2023/01/11 04:43:56;;;;;;;2.42;0.40;;;;;;;9.88;90.42;99755.97;4994342;28;20191;-77
2023/01/11 04:46:25;;;;;;;0.65;0.30;;;;;;;9.92;91.87;99762.91;4994744;28;20137;-79
2023/01/11 04:48:55;;;;;;;0.68;0.30;;;;;;;9.94;90.97;99762.13;4992957;28;20630;-77
2023/01/11 04:51:23;;;;;;;2.35;0.30;;;;;;;9.96;91.26;99764.72;4994005;28;20059;-77
2023/01/11 04:53:53;;;;;;;0.20;0.20;;;;;;;9.95;90.39;99770.75;4991791;28;20047;-83
2023/01/11 04:56:22;;;;;;;2.35;0.20;;;;;;;9.95;89.25;99768.16;4994098;28;20050;-77
2023/01/11 04:58:50;;;;;;;1.80;0.30;;;;;;;9.96;89.24;99772.47;4991733;28;20096;-78
2023/01/11 05:01:20;;;;;;;0.40;0.20;;;;;;;9.99;88.38;99764.78;4995619;28;20642;-79
2023/01/11 05:03:50;;;;;;;0.20;0.20;;;;;;;10.01;88.62;99774.28;4992387;28;20062;-79
2023/01/11 05:06:21;;;;;;;1.02;0.43;;;;;;;10.03;89.05;99775.19;4999571;28;20089;-76
2023/01/11 05:08:50;;;;;;;0.50;0.30;;;;;;;10.03;86.95;99775.19;4991633;28;20073;-76
2023/01/11 05:11:20;;;;;;;0.20;0.20;;;;;;;9.99;86.32;99772.53;4993476;28;20055;-74
2023/01/11 05:13:48;;;;;;;1.95;0.20;;;;;;;10.07;85.45;99789.88;4994620;28;20129;-76
2023/01/11 05:16:19;;;;;;;0.40;0.30;;;;;;;10.11;84.54;99797.69;4994477;28;20511;-77
2023/01/11 05:18:49;;;;;;;0.10;0.10;;;;;;;10.13;84.39;99798.59;4996225;28;20052;-75
2023/01/11 05:21:19;;;;;;;0.20;0.20;;;;;;;10.17;85.29;99806.44;4993745;28;20050;-77
2023/01/11 05:23:48;;;;;;;0.80;0.20;;;;;;;10.21;84.55;99807.31;4994252;28;20064;-75
2023/01/11 05:26:21;;;;;;;2.03;0.50;;;;;;;10.22;86.14;99809.94;5001916;28;20046;-75
2023/01/11 05:28:50;;;;;;;0.40;0.20;;;;;;;10.24;86.75;99813.44;5002503;28;20052;-75
2023/01/11 05:31:19;;;;;;;1.00;0.55;;;;;;;10.27;86.28;99822.94;5006265;28;20046;-74
2023/01/11 05:33:48;;;;;;;0.77;0.57;;;;;;;10.29;86.75;99820.41;5012418;28;20680;-75
2023/01/11 05:36:17;;;;;;;1.05;0.60;;;;;;;10.30;87.59;99822.16;5009950;28;20518;-75
2023/01/11 05:38:47;;;;;;;1.10;1.00;;;;;;;10.22;88.71;99816.84;5007944;28;20046;-75
2023/01/11 05:41:17;;;;;;;1.40;1.10;;;;;;;10.27;88.20;99818.63;5008935;28;20050;-74
2023/01/11 05:46:35;;;;;;;0.77;0.50;;;;;;;10.25;90.04;99841.00;5011069;28;20517;-76
2023/01/11 05:49:07;;;;;;;0.75;0.60;;;;;;;10.20;91.02;99847.81;5009600;28;20053;-74
2023/01/11 05:51:37;;;;;;;1.38;0.63;;;;;;;10.15;92.12;99843.44;5008091;28;20057;-76
2023/01/11 05:54:07;;;;;;;1.27;0.70;;;;;;;10.13;92.87;99852.88;5011906;28;20049;-75
2023/01/11 05:56:36;;;;;;;0.93;0.45;;;;;;;10.11;93.26;99852.84;5009086;28;20132;-75
2023/01/11 05:59:06;;;;;;;1.17;0.43;;;;;;;10.11;92.68;99860.59;5007631;28;20045;-73
2023/01/11 06:01:35;;;;;;;2.15;1.48;;;;;;;10.11;93.18;99859.72;5010974;28;20073;-75
2023/01/11 06:04:03;;;;;;;1.00;0.30;;;;;;;10.09;92.49;99879.50;5006823;28;20507;-75
2023/01/11 06:06:32;;;;;;;0.50;0.50;;;;;;;10.06;92.58;99877.75;5008962;28;20104;-74
2023/01/11 06:09:01;;;;;;;0.63;0.47;;;;;;;10.03;92.11;99880.25;5008441;28;20061;-76
2023/01/11 06:11:30;;;;;;;1.42;0.50;;;;;;;10.02;92.47;99879.41;5008099;28;20053;-74
2023/01/11 06:13:58;;;;;;;1.05;0.60;;;;;;;10.02;92.83;99878.53;5009592;28;20054;-75
2023/01/11 06:16:28;;;;;;;0.57;0.30;;;;;;;10.02;92.94;99881.97;5007912;28;20058;-75
2023/01/11 06:18:57;;;;;;;0.30;0.28;;;;;;;10.02;93.11;99888.88;5006441;28;20076;-73
2023/01/11 06:21:25;;;;;;;0.30;0.25;;;;;;;10.02;92.88;99899.22;5006814;28;20057;-74
2023/01/11 06:23:54;;;;;;;0.35;0.13;;;;;;;10.04;92.41;99902.69;5009357;28;20053;-73
2023/01/11 06:26:23;;;;;;;0.20;0.20;;;;;;;10.05;93.30;99913.03;5006741;28;20069;-72
2023/01/11 06:28:52;;;;;;;0.20;0.20;;;;;;;10.01;91.38;99912.94;5002826;28;20046;-72
2023/01/11 06:31:20;;;;;;;1.48;1.08;;;;;;;10.00;92.79;99913.81;5008452;28;20128;-71
2023/01/11 06:33:51;;;;;;;0.10;0.00;;;;;;;10.00;93.15;99924.16;5005423;28;20046;-72
2023/01/11 06:36:20;;;;;;;0.43;0.30;;;;;;;9.99;94.78;99928.47;5005470;28;20046;-71
2023/01/11 06:38:49;;;;;;;0.52;0.20;;;;;;;9.98;95.74;99931.00;5006723;28;20060;-71
2023/01/11 06:41:17;;;;;;;0.10;0.10;;;;;;;9.96;95.97;99933.53;5007208;28;20500;-71
2023/01/11 06:43:46;;;;;;;0.50;0.17;;;;;;;9.96;97.54;99937.84;5005959;28;20050;-71
2023/01/11 06:46:15;;;;;;;0.43;0.20;;;;;;;9.96;96.86;99945.59;5005088;28;20041;-71
2023/01/11 06:48:45;;;;;;;2.75;0.32;;;;;;;9.96;97.07;99951.63;5007534;28;20103;-71
2023/01/11 06:51:16;;;;;;;0.65;0.20;;;;;;;9.96;96.18;99955.94;5012044;28;20061;-71
2023/01/11 06:53:45;;;;;;;0.40;0.30;;;;;;;9.96;95.37;99961.97;5009465;28;20412;-71
2023/01/11 06:56:16;;;;;;;0.20;0.17;;;;;;;9.97;96.13;99963.72;5008970;28;20520;-71
2023/01/11 06:58:45;;;;;;;0.10;0.10;;;;;;;9.97;95.86;99973.22;5007519;28;20042;-70
2023/01/11 07:01:13;;;;;;;0.17;0.00;;;;;;;9.98;97.19;99980.09;5006653;28;20048;-71
2023/01/11 07:03:42;;;;;;;0.20;0.10;;;;;;;9.96;97.80;99981.78;5004777;28;20054;-72
2023/01/11 07:06:10;;;;;;;0.10;0.10;;;;;;;9.97;97.68;99984.41;5007790;28;20825;-70
2023/01/11 07:08:41;;;;;;;0.10;0.10;;;;;;;9.97;97.75;99991.28;5007777;28;20049;-71
2023/01/11 07:11:10;;;;;;;0.20;0.10;;;;;;;9.99;97.64;99990.47;5007847;28;20065;-72
2023/01/11 07:13:39;;;;;;;0.10;0.10;;;;;;;10.01;96.82;100006.00;5003728;28;20042;-71
2023/01/11 07:16:08;;;;;;;0.20;0.10;;;;;;;10.03;96.74;100006.91;5007966;28;20048;-71
2023/01/11 07:18:36;;;;;;;1.30;0.20;;;;;;;9.98;97.99;100011.97;5005449;28;20077;-71
2023/01/11 07:21:05;;;;;;;0.10;0.10;;;;;;;9.96;92.95;100017.97;5008041;28;20065;-71
2023/01/11 07:23:33;;;;;;;0.32;0.20;;;;;;;9.95;95.09;100011.06;5001370;28;20656;-72
2023/01/11 07:26:04;;;;;;;0.20;0.20;;;;;;;9.98;96.80;100011.13;5009010;28;20601;-71
2023/01/11 07:28:32;;;;;;;0.47;0.20;;;;;;;10.00;98.15;100019.78;5004602;28;20062;-71
2023/01/11 07:31:01;;;;;;;0.25;0.20;;;;;;;10.00;97.27;100017.19;5005249;28;20050;-72
2023/01/11 07:33:29;;;;;;;0.60;0.38;;;;;;;10.03;97.29;100027.56;5007445;28;20144;-71
2023/01/11 07:35:59;;;;;;;1.55;0.20;;;;;;;10.03;98.62;100032.75;5007354;28;20554;-72
2023/01/11 07:38:29;;;;;;;1.02;0.40;;;;;;;9.99;99.60;100028.38;5004475;28;20041;-71
2023/01/11 07:40:57;;;;;;;0.90;0.40;;;;;;;9.95;97.39;100021.41;5005811;28;20120;-71
2023/01/11 07:43:26;;;;;;;2.45;1.00;;;;;;;9.96;98.68;100008.50;5006573;28;20116;-71
2023/01/11 07:45:55;;;;;;;2.00;0.70;;;;;;;9.93;100.00;100020.50;5005064;28;20172;-71
2023/01/11 07:48:25;;;;;;;0.88;0.40;;;;;;;9.93;99.20;100029.13;5011353;28;20080;-71
2023/01/11 07:50:54;;;;;;;1.00;0.65;;;;;;;9.93;97.99;100041.16;5006113;28;20054;-71
2023/01/11 07:53:25;;;;;;;0.32;0.25;;;;;;;9.90;91.17;100043.69;5006085;28;20061;-71
2023/01/11 07:55:55;;;;;;;1.48;0.20;;;;;;;9.88;90.68;100056.56;5006219;28;20054;-71
2023/01/11 07:58:23;;;;;;;0.45;0.30;;;;;;;9.91;96.36;100055.78;5008753;28;20649;-71
2023/01/11 08:00:55;;;;;;;0.17;0.17;;;;;;;9.91;91.48;100058.34;5004058;28;20060;-71
2023/01/11 08:03:24;;;;;;;2.25;0.20;;;;;;;9.93;92.21;100061.84;5007109;28;20165;-71
2023/01/11 08:05:53;;;;;;;0.52;0.20;;;;;;;9.93;92.97;100067.00;5006450;28;20052;-71
2023/01/11 08:08:22;;;;;;;0.10;0.10;;;;;;;9.96;90.23;100069.66;5005584;28;20081;-72
2023/01/11 08:14:38;;;;;;;0.73;0.28;;;;;;;9.99;93.87;100067.16;5007850;28;20050;-71
2023/01/11 08:16:27;;;;;;;0.47;0.32;;;;;;;10.01;93.74;100074.09;5007035;28;20184;-71
2023/01/11 08:18:56;;;;;;;0.45;0.20;;;;;;;9.97;88.72;100074.84;5004981;28;20197;-72
2023/01/11 08:21:24;;;;;;;0.43;0.30;;;;;;;9.98;90.21;100075.72;5005467;28;20046;-71
2023/01/11 08:23:54;;;;;;;0.60;0.40;;;;;;;10.00;90.34;100074.91;5004247;28;20053;-71
2023/01/11 08:26:24;;;;;;;1.85;0.35;;;;;;;10.01;89.98;100080.94;5004140;28;20054;-72
2023/01/11 08:28:53;;;;;;;0.93;0.20;;;;;;;10.03;93.47;100087.03;5007145;28;20053;-72
2023/01/11 08:31:23;;;;;;;0.40;0.30;;;;;;;10.00;88.95;100092.13;5007064;28;20140;-70
2023/01/11 08:33:53;;;;;;;0.93;0.40;;;;;;;9.95;93.28;100080.84;5007203;28;20077;-73
2023/01/11 08:36:23;;;;;;;0.47;0.30;;;;;;;9.95;90.69;100094.63;5007077;28;20120;-71
2023/01/11 08:38:55;;;;;;;0.40;0.30;;;;;;;9.96;90.24;100093.78;5006829;28;20567;-72
2023/01/11 08:41:24;;;;;;;0.35;0.28;;;;;;;9.97;91.62;100095.53;5004853;28;20696;-72
2023/01/11 08:43:53;;;;;;;0.77;0.50;;;;;;;9.99;90.92;100111.09;5006119;28;20523;-72
2023/01/11 08:46:22;;;;;;;0.10;0.10;;;;;;;10.02;93.58;100109.41;5003030;28;20042;-72
2023/01/11 08:48:52;;;;;;;1.20;0.47;;;;;;;10.01;93.47;100109.38;5009680;28;20061;-72
2023/01/11 08:51:21;;;;;;;6.90;0.60;;;;;;;10.00;91.64;100115.41;5007360;28;20080;-72
2023/01/11 08:53:52;;;;;;;0.68;0.30;;;;;;;9.99;90.10;100111.94;5009154;28;20049;-72
2023/01/11 08:56:20;;;;;;;1.13;0.40;;;;;;;9.95;89.46;100115.31;5009295;28;20049;-71
2023/01/11 08:58:49;;;;;;;1.08;0.50;;;;;;;9.99;89.57;100116.25;5009846;28;20141;-73
2023/01/11 09:01:17;;;;;;;1.58;0.20;;;;;;;9.99;91.28;100117.13;5008163;28;20510;-71
2023/01/11 09:03:46;;;;;;;0.50;0.30;;;;;;;9.99;95.80;100116.25;5010028;28;20141;-71
2023/01/11 09:06:17;;;;;;;0.40;0.22;;;;;;;9.96;91.88;100121.34;5008764;28;20650;-71
2023/01/11 09:08:46;;;;;;;1.58;0.60;;;;;;;9.96;90.99;100131.69;5010189;28;20065;-72
2023/01/11 09:13:57;;;;;;;0.75;0.28;;;;;;;9.97;90.11;100129.13;5009979;28;20171;-71
2023/01/11 09:16:25;;;;;;;0.60;0.30;;;;;;;10.00;89.73;100133.50;5007648;28;20523;-72
2023/01/11 09:18:54;;;;;;;0.80;0.40;;;;;;;10.00;89.09;100143.81;5007777;28;20053;-73
2023/01/11 09:21:24;;;;;;;0.80;0.35;;;;;;;10.00;90.32;100136.06;5000291;28;20052;-72
2023/01/11 09:23:53;;;;;;;1.27;0.50;;;;;;;10.01;88.84;100145.56;5003028;28;20094;-72
2023/01/11 09:26:21;;;;;;;0.50;0.30;;;;;;;10.01;90.65;100140.38;5009150;28;20042;-72
2023/01/11 09:28:50;;;;;;;1.17;0.32;;;;;;;10.02;93.01;100147.31;5009098;28;20065;-72
2023/01/11 09:31:19;;;;;;;1.13;0.50;;;;;;;9.99;92.90;100149.84;5010773;28;20552;-72
2023/01/11 09:33:49;;;;;;;2.45;0.55;;;;;;;9.93;90.82;100155.75;5009577;28;20061;-71
2023/01/11 09:36:20;;;;;;;0.60;0.43;;;;;;;9.93;90.91;100166.06;5009917;28;20038;-71
2023/01/11 09:38:51;;;;;;;0.68;0.40;;;;;;;9.93;88.96;100165.22;5004876;28;20052;-71
2023/01/11 09:41:32;;;;;;;0.55;0.32;;;;;;;9.88;88.46;100172.00;5010907;28;20045;-70
2023/01/11 09:44:13;;;;;;;0.77;0.20;;;;;;;9.90;90.11;100175.50;5008755;28;20119;-72
2023/01/11 09:46:43;;;;;;;2.20;0.63;;;;;;;9.91;89.80;100178.09;5005071;28;20050;-71
2023/01/11 09:49:19;;;;;;;0.45;0.38;;;;;;;9.92;88.52;100178.94;5005711;28;20054;-71
2023/01/11 09:51:49;;;;;;;0.40;0.30;;;;;;;9.95;87.52;100190.25;5005572;28;20046;-72
2023/01/11 09:54:27;;;;;;;0.65;0.38;;;;;;;9.96;88.62;100191.13;5009011;28;20054;-72
2023/01/11 09:57:09;;;;;;;1.58;0.43;;;;;;;9.95;86.51;100197.13;5004854;28;20050;-72
2023/01/11 09:59:47;;;;;;;0.70;0.40;;;;;;;9.97;85.93;100205.81;5006321;28;20050;-72
2023/01/11 10:02:29;;;;;;;0.20;0.20;;;;;;;9.99;85.62;100204.13;5006233;28;20050;-71
2023/01/11 10:05:24;;;;;;;0.20;0.15;;;;;;;9.99;87.03;100214.47;5005097;28;20049;-71
2023/01/11 10:08:16;;;;;;;1.05;0.30;;;;;;;9.99;86.82;100214.47;5003084;28;20045;-71
2023/01/11 10:10:55;;;;;;;0.93;0.30;;;;;;;9.98;87.63;100223.91;5004914;28;20499;-71
2023/01/11 10:13:44;;;;;;;2.58;0.25;;;;;;;9.97;86.83;100226.47;5006496;28;20049;-71
2023/01/11 10:16:25;;;;;;;0.85;0.40;;;;;;;9.98;87.18;100229.06;5005193;28;20042;-71
2023/01/11 10:19:04;;;;;;;0.73;0.28;;;;;;;9.99;85.79;100240.31;5005343;28;20049;-72
2023/01/11 10:21:45;;;;;;;0.38;0.30;;;;;;;9.98;83.57;100244.59;5007136;28;20112;-71
2023/01/11 10:24:23;;;;;;;0.52;0.30;;;;;;;10.05;84.58;100250.78;5006130;28;20049;-74
2023/01/11 10:26:58;;;;;;;0.30;0.20;;;;;;;10.05;82.05;100254.22;5008291;28;20042;-71
2023/01/11 10:29:52;;;;;;;0.13;0.13;;;;;;;10.06;82.15;100262.88;5006484;28;20129;-72
2023/01/11 10:35:40;;;;;;;0.32;0.30;;;;;;;10.12;81.86;100281.09;4987800;28;20053;-72
2023/01/11 10:38:31;;;;;;;0.25;0.20;;;;;;;10.13;81.28;100269.94;5007767;28;20052;-71
2023/01/11 10:41:11;;;;;;;0.20;0.20;;;;;;;10.15;80.59;100288.94;5010706;28;20046;-72
2023/01/11 10:43:44;;;;;;;0.32;0.20;;;;;;;10.15;80.91;100277.75;4999832;28;20149;-71
2023/01/11 10:46:17;;;;;;;0.20;0.20;;;;;;;10.17;79.68;100278.63;5006724;28;20042;-72
2023/01/11 10:48:45;;;;;;;;;;;;;;;10.18;79.11;100282.97;5008251;28;20058;-71
2023/01/11 10:51:25;;;;;;;0.43;0.20;;;;;;;10.18;78.93;100280.38;5008765;28;20584;-74
2023/01/11 10:54:05;;;;;;;1.20;0.20;;;;;;;10.20;78.61;100287.34;5006290;28;20066;-71
2023/01/11 10:56:48;;;;;;;0.20;0.10;;;;;;;10.18;77.95;100291.59;5006203;28;20056;-71
2023/01/11 10:59:36;;;;;;;0.40;0.20;;;;;;;10.20;77.98;100289.91;5003915;28;20042;-71
2023/01/11 11:02:14;;;;;;;0.45;0.20;;;;;;;10.17;77.34;100291.53;5009559;28;20048;-72
2023/01/11 11:05:00;;;;;;;0.40;0.22;;;;;;;10.22;76.57;100300.31;5006702;28;20050;-71
2023/01/11 11:07:37;;;;;;;0.00;0.00;;;;;;;10.21;76.55;100304.56;5007582;28;20193;-74
2023/01/11 11:10:15;;;;;;;0.38;0.17;;;;;;;10.21;76.11;100299.41;5008044;28;20045;-71
2023/01/11 11:12:49;;;;;;;0.10;0.10;;;;;;;10.25;76.17;100306.41;5005882;28;20061;-71
2023/01/11 11:15:25;;;;;;;0.30;0.20;;;;;;;10.22;75.17;100311.50;5008281;28;20080;-72
2023/01/11 11:17:55;;;;;;;0.08;0.08;;;;;;;10.24;76.39;100311.56;5007217;28;20478;-71
2023/01/11 11:20:26;;;;;;;0.60;0.20;;;;;;;10.26;76.40;100315.94;5005810;28;20519;-71
2023/01/11 11:22:56;;;;;;;0.77;0.40;;;;;;;10.24;75.66;100317.59;5009290;28;20050;-71
2023/01/11 11:25:30;;;;;;;1.23;0.35;;;;;;;10.23;75.58;100323.59;4992834;28;20077;-72
2023/01/11 11:28:03;;;;;;;1.00;0.52;;;;;;;10.21;75.02;100340.78;4988760;28;20047;-71
2023/01/11 11:30:38;;;;;;;0.90;0.38;;;;;;;10.26;74.62;100338.31;4986313;28;20061;-71
2023/01/11 11:33:16;;;;;;;0.65;0.52;;;;;;;10.27;74.68;100340.94;4988412;28;20049;-70
2023/01/11 11:35:55;;;;;;;0.55;0.50;;;;;;;10.26;74.52;100339.19;4985869;28;20076;-70
2023/01/11 11:38:39;;;;;;;2.67;0.32;;;;;;;10.26;74.29;100341.78;4991016;28;20492;-70
2023/01/11 11:41:10;;;;;;;0.77;0.50;;;;;;;10.27;74.02;100346.09;4991061;28;20050;-71
2023/01/11 11:43:40;;;;;;;0.93;0.60;;;;;;;10.30;73.95;100359.97;4988463;28;20050;-71
2023/01/11 11:46:24;;;;;;;0.47;0.38;;;;;;;10.27;74.59;100355.59;4989249;28;20042;-71
2023/01/11 11:49:12;;;;;;;0.40;0.30;;;;;;;10.27;73.48;100361.63;4987318;28;20617;-71
2023/01/11 11:51:42;;;;;;;1.58;0.30;;;;;;;10.28;73.90;100370.25;4989449;28;20117;-71
2023/01/11 11:54:21;;;;;;;2.15;0.40;;;;;;;10.27;74.19;100369.38;4987788;28;20631;-71
2023/01/11 11:56:50;;;;;;;0.43;0.30;;;;;;;10.23;73.25;100370.13;4987314;28;20050;-71
2023/01/11 11:59:21;;;;;;;0.68;0.55;;;;;;;10.18;74.03;100360.53;4988348;28;20489;-70
2023/01/11 12:01:58;;;;;;;0.93;0.50;;;;;;;10.21;73.30;100381.28;4987670;28;20075;-74
2023/01/11 12:04:36;;;;;;;2.60;0.70;;;;;;;10.20;73.70;100380.41;4988853;28;20530;-71
2023/01/11 12:07:14;;;;;;;0.80;0.47;;;;;;;10.17;73.52;100382.94;4988174;28;20097;-70
2023/01/11 12:09:47;;;;;;;0.40;0.30;;;;;;;10.18;73.93;100384.66;4987920;28;20046;-70
2023/01/11 12:12:21;;;;;;;0.85;0.57;;;;;;;10.16;74.13;100383.75;4987197;28;20053;-71
2023/01/11 12:15:09;;;;;;;1.38;0.40;;;;;;;10.08;73.72;100395.63;4994148;28;20420;-70
2023/01/11 12:17:39;;;;;;;1.23;0.40;;;;;;;10.01;73.95;100384.25;4986932;28;20047;-72
2023/01/11 12:20:27;;;;;;;0.57;0.47;;;;;;;10.02;74.90;100391.16;4991861;28;20046;-70
2023/01/11 12:23:17;;;;;;;0.63;0.40;;;;;;;9.98;74.17;100391.91;4989373;28;20046;-71
2023/01/11 12:26:13;;;;;;;0.85;0.40;;;;;;;9.91;75.10;100397.75;5000101;28;20247;-72
2023/01/11 12:29:12;;;;;;;0.30;0.30;;;;;;;9.86;75.31;100399.34;5007949;28;20049;-71